Time;durP1;ratioP1;P1;durP2;ratioP2;P2;SDS_P1;SDS_P2;PMS_P1;PMS_P2;Temp;Humidity;BMP_temperature;BMP_pressure;BME280_temperature;BME280_humidity;BME280_pressure;Samples;Min_cycle;Max_cycle;Signal;HPM_P1;HPM_P2
2024/04/04 00:00:25;;;;;;;7.05;6.35;;;;;;;;;;5106436;28;20028;-47
2024/04/04 00:02:53;;;;;;;9.48;7.13;;;;;;;;;;5106722;28;20083;-45
2024/04/04 00:05:20;;;;;;;8.50;7.60;;;;;;;;;;5107088;28;20196;-44
2024/04/04 00:07:47;;;;;;;11.25;9.50;;;;;;;;;;5106422;28;20020;-41
2024/04/04 00:10:14;;;;;;;9.50;7.97;;;;;;;;;;5106698;28;20047;-45
2024/04/04 00:12:42;;;;;;;7.63;6.80;;;;;;;;;;5106518;28;20035;-45
2024/04/04 00:15:10;;;;;;;8.27;6.70;;;;;;;;;;5106716;28;20024;-47
2024/04/04 00:17:37;;;;;;;7.20;6.50;;;;;;;;;;5105280;28;20032;-42
2024/04/04 00:20:04;;;;;;;8.00;6.63;;;;;;;;;;5106761;28;20292;-42
2024/04/04 00:22:31;;;;;;;8.32;7.50;;;;;;;;;;5106752;28;20027;-44
2024/04/04 00:24:58;;;;;;;7.93;6.70;;;;;;;;;;5106483;28;20051;-44
2024/04/04 00:27:24;;;;;;;6.90;6.25;;;;;;;;;;5106467;28;20024;-45
2024/04/04 00:29:51;;;;;;;7.05;6.30;;;;;;;;;;5103962;28;20067;-46
2024/04/04 00:32:19;;;;;;;8.13;6.80;;;;;;;;;;5099614;28;20032;-48
2024/04/04 00:34:47;;;;;;;7.30;6.15;;;;;;;;;;5094275;28;20028;-46
2024/04/04 00:37:14;;;;;;;9.68;6.22;;;;;;;;;;5100063;28;20034;-43
2024/04/04 00:39:41;;;;;;;7.07;6.35;;;;;;;;;;5100395;28;20075;-39
2024/04/04 00:42:08;;;;;;;9.18;6.90;;;;;;;;;;5106080;28;20028;-48
2024/04/04 00:44:35;;;;;;;7.47;6.60;;;;;;;;;;5105696;28;20035;-40
2024/04/04 00:47:02;;;;;;;7.70;6.65;;;;;;;;;;5101636;28;20336;-49
2024/04/04 00:49:29;;;;;;;7.70;6.90;;;;;;;;;;5096920;28;20047;-50
2024/04/04 00:51:56;;;;;;;7.05;6.35;;;;;;;;;;5085641;28;20024;-49
2024/04/04 00:54:23;;;;;;;7.97;6.30;;;;;;;;;;5085615;28;20021;-39
2024/04/04 00:56:50;;;;;;;7.40;6.70;;;;;;;;;;5085447;28;20048;-44
2024/04/04 00:59:17;;;;;;;10.55;6.32;;;;;;;;;;5085480;28;20021;-41
2024/04/04 01:01:44;;;;;;;7.47;6.60;;;;;;;;;;5085092;28;20095;-45
2024/04/04 01:04:12;;;;;;;9.55;6.95;;;;;;;;;;5085404;28;20284;-49
2024/04/04 01:06:48;;;;;;;7.88;6.10;;;;;;;;;;5086078;28;20077;-41
2024/04/04 01:09:16;;;;;;;8.77;6.63;;;;;;;;;;5094118;28;20297;-45
2024/04/04 01:11:44;;;;;;;8.50;6.00;;;;;;;;;;5085316;28;20073;-43
2024/04/04 01:14:10;;;;;;;8.82;6.38;;;;;;;;;;5085059;28;20029;-41
2024/04/04 01:16:37;;;;;;;8.05;6.32;;;;;;;;;;5087645;28;20020;-42
2024/04/04 01:19:04;;;;;;;8.35;6.30;;;;;;;;;;5097125;28;20031;-42
2024/04/04 01:21:32;;;;;;;9.30;6.20;;;;;;;;;;5093902;28;20027;-52
2024/04/04 01:23:59;;;;;;;6.55;5.95;;;;;;;;;;5083551;28;20096;-43
2024/04/04 01:26:27;;;;;;;8.07;6.28;;;;;;;;;;5089574;28;20026;-47
2024/04/04 01:28:54;;;;;;;9.85;7.07;;;;;;;;;;5089895;28;20024;-40
2024/04/04 01:31:21;;;;;;;7.57;6.60;;;;;;;;;;5084461;28;20110;-46
2024/04/04 01:33:48;;;;;;;11.05;6.20;;;;;;;;;;5084842;28;20033;-45
2024/04/04 01:36:15;;;;;;;7.10;5.97;;;;;;;;;;5084394;28;20012;-50
2024/04/04 01:38:42;;;;;;;7.97;5.70;;;;;;;;;;5084645;28;20205;-42
2024/04/04 01:41:09;;;;;;;6.60;5.80;;;;;;;;;;5084457;28;20012;-49
2024/04/04 01:43:40;;;;;;;8.27;6.82;;;;;;;;;;5084432;28;20074;-45
2024/04/04 01:46:09;;;;;;;13.50;6.53;;;;;;;;;;5084265;28;20321;-43
2024/04/04 01:48:57;;;;;;;7.40;6.70;;;;;;;;;;5084701;28;20024;-50
2024/04/04 01:51:25;;;;;;;9.25;6.90;;;;;;;;;;5083364;28;20170;-54
2024/04/04 01:53:52;;;;;;;9.13;7.63;;;;;;;;;;5084399;28;20259;-49
2024/04/04 01:56:28;;;;;;;8.82;7.38;;;;;;;;;;5084009;28;20012;-51
2024/04/04 01:58:58;;;;;;;11.13;7.93;;;;;;;;;;5073030;28;20042;-53
2024/04/04 02:01:51;;;;;;;12.85;7.13;;;;;;;;;;5094249;28;20366;-49
2024/04/04 02:04:38;;;;;;;8.13;6.20;;;;;;;;;;5099956;28;20036;-51
2024/04/04 02:07:28;;;;;;;7.72;5.43;;;;;;;;;;5103607;28;20012;-45
2024/04/04 02:10:04;;;;;;;5.38;4.78;;;;;;;;;;5092644;28;20039;-43
2024/04/04 02:13:03;;;;;;;9.35;5.13;;;;;;;;;;5092914;28;20017;-44
2024/04/04 02:16:03;;;;;;;6.55;4.90;;;;;;;;;;5075190;28;20045;-48
2024/04/04 02:18:29;;;;;;;6.32;4.20;;;;;;;;;;5060970;28;20174;-47
2024/04/04 02:20:59;;;;;;;8.43;4.78;;;;;;;;;;5083985;28;20044;-46
2024/04/04 02:23:35;;;;;;;5.20;4.30;;;;;;;;;;5083925;28;20024;-51
2024/04/04 02:26:03;;;;;;;7.40;4.07;;;;;;;;;;5083760;28;20052;-48
2024/04/04 02:28:47;;;;;;;7.50;3.95;;;;;;;;;;5082363;28;20032;-55
2024/04/04 02:31:16;;;;;;;7.20;4.30;;;;;;;;;;5094042;28;20040;-43
2024/04/04 02:33:43;;;;;;;8.80;3.50;;;;;;;;;;5098703;28;20251;-46
2024/04/04 02:36:10;;;;;;;6.28;4.18;;;;;;;;;;5085891;28;20020;-50
2024/04/04 02:38:37;;;;;;;4.82;3.42;;;;;;;;;;5092817;28;20078;-44
2024/04/04 02:41:04;;;;;;;5.10;3.70;;;;;;;;;;5083903;28;20029;-40
2024/04/04 02:43:34;;;;;;;5.07;3.60;;;;;;;;;;5083764;28;20067;-54
2024/04/04 02:46:01;;;;;;;6.90;3.80;;;;;;;;;;5083913;28;20023;-59
2024/04/04 02:48:28;;;;;;;5.30;3.55;;;;;;;;;;5083627;28;20013;-51
2024/04/04 02:50:56;;;;;;;5.13;3.97;;;;;;;;;;5083763;28;20024;-42
2024/04/04 02:53:23;;;;;;;6.05;3.80;;;;;;;;;;5083815;28;20020;-46
2024/04/04 02:55:57;;;;;;;6.57;3.97;;;;;;;;;;5083710;28;20024;-39
2024/04/04 02:58:24;;;;;;;7.32;3.75;;;;;;;;;;5083362;28;20139;-48
2024/04/04 03:00:51;;;;;;;6.32;3.80;;;;;;;;;;5087500;28;20029;-48
2024/04/04 03:03:19;;;;;;;9.15;4.00;;;;;;;;;;5103037;28;20024;-49
2024/04/04 03:05:46;;;;;;;6.28;3.67;;;;;;;;;;5101476;28;20119;-49
2024/04/04 03:08:17;;;;;;;7.70;3.50;;;;;;;;;;5094039;28;20091;-40
2024/04/04 03:10:44;;;;;;;6.68;3.70;;;;;;;;;;5083574;28;20318;-43
2024/04/04 03:13:11;;;;;;;4.95;3.30;;;;;;;;;;5083359;28;20028;-46
2024/04/04 03:15:37;;;;;;;4.30;3.70;;;;;;;;;;5083544;28;20373;-51
2024/04/04 03:18:04;;;;;;;6.50;4.07;;;;;;;;;;5083508;28;20106;-43
2024/04/04 03:20:31;;;;;;;7.03;4.03;;;;;;;;;;5083207;28;20037;-47
2024/04/04 03:22:58;;;;;;;4.40;4.00;;;;;;;;;;5083487;28;20084;-47
2024/04/04 03:25:27;;;;;;;7.38;4.13;;;;;;;;;;5083504;28;20327;-50
2024/04/04 03:27:53;;;;;;;6.97;4.10;;;;;;;;;;5083151;28;20025;-49
2024/04/04 03:30:20;;;;;;;6.60;4.20;;;;;;;;;;5083437;28;20108;-50
2024/04/04 03:32:47;;;;;;;5.15;4.18;;;;;;;;;;5087127;28;20024;-42
2024/04/04 03:35:13;;;;;;;8.35;4.35;;;;;;;;;;5086705;28;20079;-50
2024/04/04 03:37:40;;;;;;;8.60;4.35;;;;;;;;;;5087153;28;20040;-51
2024/04/04 03:40:07;;;;;;;7.43;4.00;;;;;;;;;;5098688;28;20031;-45
2024/04/04 03:42:34;;;;;;;6.40;4.55;;;;;;;;;;5087359;28;20024;-52
2024/04/04 03:45:00;;;;;;;7.03;4.18;;;;;;;;;;5087071;28;20212;-47
2024/04/04 03:47:27;;;;;;;9.65;4.47;;;;;;;;;;5087152;28;20067;-43
2024/04/04 03:49:53;;;;;;;9.13;4.55;;;;;;;;;;5086700;28;20024;-54
2024/04/04 03:52:20;;;;;;;8.18;4.15;;;;;;;;;;5087025;28;20032;-41
2024/04/04 03:54:47;;;;;;;7.45;4.35;;;;;;;;;;5086573;28;20086;-44
2024/04/04 03:57:13;;;;;;;6.28;4.15;;;;;;;;;;5087018;28;20047;-45
2024/04/04 03:59:40;;;;;;;10.43;4.70;;;;;;;;;;5086467;28;20035;-50
2024/04/04 04:02:06;;;;;;;5.97;4.00;;;;;;;;;;5086953;28;20032;-46
2024/04/04 04:04:33;;;;;;;7.28;4.45;;;;;;;;;;5086371;28;20020;-49
2024/04/04 04:07:00;;;;;;;6.85;4.15;;;;;;;;;;5086761;28;20213;-50
2024/04/04 04:09:26;;;;;;;5.75;4.65;;;;;;;;;;5086404;28;20236;-47
2024/04/04 04:11:53;;;;;;;11.25;4.88;;;;;;;;;;5086656;28;20088;-51
2024/04/04 04:14:19;;;;;;;7.93;4.68;;;;;;;;;;5086136;28;20022;-44
2024/04/04 04:16:46;;;;;;;6.03;4.60;;;;;;;;;;5086963;28;20028;-40
2024/04/04 04:19:14;;;;;;;8.23;4.80;;;;;;;;;;5086260;28;20050;-41
2024/04/04 04:21:41;;;;;;;6.53;5.07;;;;;;;;;;5088783;28;20092;-48
2024/04/04 04:24:07;;;;;;;7.60;4.95;;;;;;;;;;5094219;28;20091;-45
2024/04/04 04:26:34;;;;;;;11.13;4.90;;;;;;;;;;5103759;28;20034;-50
2024/04/04 04:29:01;;;;;;;9.20;4.75;;;;;;;;;;5106132;28;20012;-43
2024/04/04 04:31:34;;;;;;;7.50;4.63;;;;;;;;;;5106362;28;20103;-48
2024/04/04 04:34:05;;;;;;;5.50;4.68;;;;;;;;;;5106162;28;20338;-50
2024/04/04 04:36:33;;;;;;;8.48;4.45;;;;;;;;;;5106403;28;20040;-42
2024/04/04 04:38:59;;;;;;;8.38;4.70;;;;;;;;;;5106131;28;20070;-52
2024/04/04 04:41:26;;;;;;;11.25;4.95;;;;;;;;;;5105992;28;20028;-54
2024/04/04 04:43:52;;;;;;;6.93;4.47;;;;;;;;;;5087514;28;20031;-44
2024/04/04 04:46:19;;;;;;;7.32;4.32;;;;;;;;;;5085952;28;20020;-45
2024/04/04 04:48:46;;;;;;;8.57;4.30;;;;;;;;;;5085602;28;20017;-47
2024/04/04 04:51:13;;;;;;;9.02;4.45;;;;;;;;;;5085642;28;20048;-50
2024/04/04 04:53:40;;;;;;;7.55;4.22;;;;;;;;;;5085519;28;20020;-53
2024/04/04 04:56:07;;;;;;;6.18;4.03;;;;;;;;;;5087824;28;20051;-50
2024/04/04 04:58:34;;;;;;;8.38;4.43;;;;;;;;;;5094121;28;20024;-51
2024/04/04 05:01:03;;;;;;;6.07;3.88;;;;;;;;;;5093167;28;20027;-52
2024/04/04 05:03:29;;;;;;;9.15;4.50;;;;;;;;;;5088177;28;20020;-49
2024/04/04 05:05:56;;;;;;;6.63;3.95;;;;;;;;;;5085194;28;20031;-49
2024/04/04 05:08:23;;;;;;;11.07;4.10;;;;;;;;;;5085161;28;20013;-47
2024/04/04 05:10:51;;;;;;;8.05;4.40;;;;;;;;;;5085414;28;20032;-45
2024/04/04 05:13:17;;;;;;;7.60;4.13;;;;;;;;;;5084889;28;20025;-46
2024/04/04 05:15:45;;;;;;;6.88;4.45;;;;;;;;;;5085089;28;20029;-45
2024/04/04 05:18:12;;;;;;;8.32;4.47;;;;;;;;;;5103053;28;20027;-41
2024/04/04 05:20:40;;;;;;;8.40;4.20;;;;;;;;;;5105117;28;20212;-51
2024/04/04 05:23:07;;;;;;;8.82;4.50;;;;;;;;;;5102811;28;20083;-49
2024/04/04 05:25:33;;;;;;;7.88;4.07;;;;;;;;;;5093722;28;20035;-53
2024/04/04 05:28:00;;;;;;;7.40;4.18;;;;;;;;;;5084716;28;20020;-47
2024/04/04 05:30:28;;;;;;;7.18;4.10;;;;;;;;;;5084718;28;20232;-46
2024/04/04 05:32:54;;;;;;;7.70;4.15;;;;;;;;;;5084333;28;20020;-47
2024/04/04 05:35:21;;;;;;;7.05;4.65;;;;;;;;;;5093429;28;20017;-46
2024/04/04 05:37:48;;;;;;;9.90;4.20;;;;;;;;;;5084717;28;20081;-50
2024/04/04 05:40:14;;;;;;;10.75;4.28;;;;;;;;;;5084553;28;20028;-49
2024/04/04 05:42:41;;;;;;;6.25;4.30;;;;;;;;;;5084374;28;20021;-49
2024/04/04 05:45:07;;;;;;;6.90;3.80;;;;;;;;;;5084442;28;20020;-51
2024/04/04 05:47:34;;;;;;;8.23;4.05;;;;;;;;;;5085117;28;20028;-49
2024/04/04 05:50:00;;;;;;;6.68;4.03;;;;;;;;;;5084274;28;20060;-48
2024/04/04 05:52:27;;;;;;;7.28;3.80;;;;;;;;;;5093680;28;20024;-44
2024/04/04 05:54:54;;;;;;;7.65;3.90;;;;;;;;;;5103978;28;20069;-49
2024/04/04 05:57:21;;;;;;;7.15;3.60;;;;;;;;;;5104809;28;20039;-46
2024/04/04 05:59:47;;;;;;;7.57;3.78;;;;;;;;;;5104622;28;20015;-47
2024/04/04 06:02:14;;;;;;;8.05;3.47;;;;;;;;;;5104936;28;20027;-42
2024/04/04 06:04:40;;;;;;;8.65;3.55;;;;;;;;;;5104248;28;20043;-42
2024/04/04 06:07:09;;;;;;;6.75;3.40;;;;;;;;;;5099581;28;20077;-43
2024/04/04 06:09:35;;;;;;;4.60;3.10;;;;;;;;;;5104021;28;20043;-41
2024/04/04 06:12:02;;;;;;;5.55;3.17;;;;;;;;;;5104642;28;20048;-48
2024/04/04 06:14:28;;;;;;;9.52;3.53;;;;;;;;;;5104557;28;20069;-41
2024/04/04 06:16:55;;;;;;;10.77;4.15;;;;;;;;;;5104616;28;20094;-41
2024/04/04 06:19:21;;;;;;;15.20;5.13;;;;;;;;;;5090856;28;20208;-45
2024/04/04 06:21:48;;;;;;;14.23;6.40;;;;;;;;;;5084398;28;20269;-43
2024/04/04 06:24:15;;;;;;;15.95;6.75;;;;;;;;;;5083787;28;20026;-46
2024/04/04 06:26:44;;;;;;;15.15;7.75;;;;;;;;;;5083879;28;20032;-44
2024/04/04 06:29:11;;;;;;;14.98;7.88;;;;;;;;;;5083906;28;20033;-51
2024/04/04 06:31:37;;;;;;;15.07;8.48;;;;;;;;;;5092936;28;20328;-41
2024/04/04 06:34:04;;;;;;;15.82;9.45;;;;;;;;;;5104101;28;20316;-40
2024/04/04 06:36:30;;;;;;;18.17;11.35;;;;;;;;;;5104271;28;20345;-41
2024/04/04 06:39:02;;;;;;;17.88;10.40;;;;;;;;;;5104021;28;20024;-45
2024/04/04 06:41:29;;;;;;;14.80;11.07;;;;;;;;;;5104082;28;20028;-49
2024/04/04 06:43:55;;;;;;;12.30;10.95;;;;;;;;;;5104037;28;20024;-46
2024/04/04 06:46:22;;;;;;;13.85;11.32;;;;;;;;;;5104202;28;20070;-47
2024/04/04 06:48:49;;;;;;;13.98;12.50;;;;;;;;;;5104296;28;20304;-40
2024/04/04 06:51:15;;;;;;;12.63;11.13;;;;;;;;;;5104128;28;20339;-41
2024/04/04 06:53:42;;;;;;;14.98;11.38;;;;;;;;;;5104170;28;20204;-45
2024/04/04 06:56:09;;;;;;;11.20;10.10;;;;;;;;;;5104228;28;20024;-53
2024/04/04 06:58:36;;;;;;;12.85;10.00;;;;;;;;;;5103799;28;20028;-43
2024/04/04 07:01:03;;;;;;;10.95;9.95;;;;;;;;;;5095889;28;20020;-42
2024/04/04 07:03:30;;;;;;;11.60;10.43;;;;;;;;;;5099144;28;20020;-41
2024/04/04 07:05:56;;;;;;;11.75;10.63;;;;;;;;;;5106749;28;20020;-52
2024/04/04 07:08:23;;;;;;;11.68;10.60;;;;;;;;;;5107965;28;20185;-48
2024/04/04 07:10:49;;;;;;;11.32;10.30;;;;;;;;;;5107957;28;20027;-47
2024/04/04 07:13:19;;;;;;;12.23;10.70;;;;;;;;;;5107625;28;20136;-46
2024/04/04 07:15:46;;;;;;;12.40;11.13;;;;;;;;;;5107659;28;20028;-48
2024/04/04 07:18:12;;;;;;;11.35;10.20;;;;;;;;;;5107730;28;20223;-48
2024/04/04 07:20:39;;;;;;;10.88;9.80;;;;;;;;;;5107383;28;20296;-41
2024/04/04 07:23:06;;;;;;;10.00;9.07;;;;;;;;;;5107524;28;20024;-44
2024/04/04 07:25:33;;;;;;;9.15;8.40;;;;;;;;;;5107441;28;20055;-38
2024/04/04 07:28:01;;;;;;;9.68;8.50;;;;;;;;;;5107269;28;20031;-42
2024/04/04 07:30:29;;;;;;;8.60;7.85;;;;;;;;;;5107363;28;20103;-44
2024/04/04 07:32:56;;;;;;;7.97;7.22;;;;;;;;;;5107312;28;20130;-48
2024/04/04 07:35:22;;;;;;;7.68;6.85;;;;;;;;;;5107092;28;20074;-43
2024/04/04 07:37:49;;;;;;;8.60;7.00;;;;;;;;;;5107231;28;20029;-45
2024/04/04 07:40:16;;;;;;;7.78;6.95;;;;;;;;;;5107167;28;20204;-47
2024/04/04 07:42:46;;;;;;;7.13;6.43;;;;;;;;;;5107016;28;20046;-48
2024/04/04 07:45:12;;;;;;;6.97;6.18;;;;;;;;;;5107010;28;20034;-48
2024/04/04 07:47:39;;;;;;;6.80;5.82;;;;;;;;;;5106982;28;20018;-45
2024/04/04 07:50:07;;;;;;;7.57;6.07;;;;;;;;;;5106847;28;20036;-45
2024/04/04 07:52:34;;;;;;;6.32;5.72;;;;;;;;;;5107445;28;20024;-42
2024/04/04 07:55:01;;;;;;;7.75;5.90;;;;;;;;;;5106878;28;20061;-48
2024/04/04 07:57:28;;;;;;;6.57;5.85;;;;;;;;;;5107177;28;20032;-49
2024/04/04 07:59:55;;;;;;;8.10;5.75;;;;;;;;;;5106786;28;20030;-57
2024/04/04 08:02:23;;;;;;;6.30;5.70;;;;;;;;;;5107225;28;20087;-49
2024/04/04 08:04:50;;;;;;;6.20;5.60;;;;;;;;;;5106493;28;20332;-48
2024/04/04 08:07:17;;;;;;;6.85;5.40;;;;;;;;;;5107137;28;20085;-51
2024/04/04 08:09:43;;;;;;;7.07;6.10;;;;;;;;;;5106733;28;20405;-48
2024/04/04 08:12:10;;;;;;;7.70;5.53;;;;;;;;;;5106373;28;20061;-50
2024/04/04 08:14:36;;;;;;;6.53;5.85;;;;;;;;;;5106476;28;20216;-48
2024/04/04 08:17:03;;;;;;;5.95;5.35;;;;;;;;;;5106118;28;20243;-48
2024/04/04 08:19:30;;;;;;;8.38;5.60;;;;;;;;;;5106281;28;20032;-55
2024/04/04 08:21:56;;;;;;;7.13;5.45;;;;;;;;;;5106850;28;20020;-50
2024/04/04 08:24:23;;;;;;;6.75;5.82;;;;;;;;;;5106266;28;20028;-48
2024/04/04 08:26:49;;;;;;;10.68;5.95;;;;;;;;;;5106530;28;20099;-61
2024/04/04 08:29:16;;;;;;;6.32;5.70;;;;;;;;;;5106190;28;20019;-49
2024/04/04 08:31:43;;;;;;;7.13;5.75;;;;;;;;;;5106626;28;20023;-47
2024/04/04 08:34:09;;;;;;;6.60;5.13;;;;;;;;;;5106323;28;20097;-44
2024/04/04 08:36:36;;;;;;;7.35;5.60;;;;;;;;;;5106366;28;20252;-41
2024/04/04 08:39:03;;;;;;;8.23;5.45;;;;;;;;;;5106177;28;20039;-42
2024/04/04 08:41:30;;;;;;;6.32;5.10;;;;;;;;;;5106101;28;20032;-44
2024/04/04 08:43:57;;;;;;;8.23;5.20;;;;;;;;;;5105866;28;20224;-46
2024/04/04 08:46:24;;;;;;;8.07;5.13;;;;;;;;;;5106120;28;20032;-41
2024/04/04 08:48:56;;;;;;;7.78;4.82;;;;;;;;;;5105781;28;20016;-45
2024/04/04 08:51:23;;;;;;;6.85;5.00;;;;;;;;;;5106086;28;20351;-43
2024/04/04 08:53:50;;;;;;;8.82;4.68;;;;;;;;;;5105832;28;20024;-41
2024/04/04 08:56:17;;;;;;;7.00;4.75;;;;;;;;;;5105477;28;20048;-41
2024/04/04 08:58:43;;;;;;;8.43;4.95;;;;;;;;;;5105781;28;20071;-42
2024/04/04 09:01:10;;;;;;;8.18;4.68;;;;;;;;;;5105886;28;20043;-42
2024/04/04 09:03:38;;;;;;;12.05;4.68;;;;;;;;;;5105358;28;20016;-50
2024/04/04 09:06:07;;;;;;;5.80;4.43;;;;;;;;;;5105757;28;20061;-51
2024/04/04 09:08:36;;;;;;;6.05;4.93;;;;;;;;;;5105512;28;20028;-52
2024/04/04 09:11:03;;;;;;;6.63;4.47;;;;;;;;;;5105400;28;20016;-47
2024/04/04 09:13:30;;;;;;;6.13;4.30;;;;;;;;;;5105689;28;20312;-50
2024/04/04 09:16:00;;;;;;;8.00;4.63;;;;;;;;;;5105505;28;20208;-50
2024/04/04 09:18:26;;;;;;;7.15;4.07;;;;;;;;;;5105399;28;20046;-47
2024/04/04 09:20:53;;;;;;;7.18;4.22;;;;;;;;;;5105380;28;20028;-47
2024/04/04 09:23:19;;;;;;;7.90;4.85;;;;;;;;;;5105241;28;20076;-47
2024/04/04 09:25:46;;;;;;;6.85;4.45;;;;;;;;;;5105055;28;20203;-41
2024/04/04 09:28:14;;;;;;;7.78;4.68;;;;;;;;;;5105088;28;20246;-46
2024/04/04 09:30:41;;;;;;;8.35;4.80;;;;;;;;;;5105111;28;20052;-48
2024/04/04 09:33:09;;;;;;;8.23;5.00;;;;;;;;;;5104900;28;20027;-50
2024/04/04 09:35:35;;;;;;;8.98;5.20;;;;;;;;;;5105017;28;20069;-47
2024/04/04 09:38:02;;;;;;;6.97;4.78;;;;;;;;;;5105029;28;20050;-50
2024/04/04 09:40:28;;;;;;;6.97;4.07;;;;;;;;;;5104686;28;20020;-44
2024/04/04 09:42:55;;;;;;;7.57;4.15;;;;;;;;;;5104767;28;20302;-43
2024/04/04 09:45:22;;;;;;;5.45;3.67;;;;;;;;;;5104703;28;20074;-42
2024/04/04 09:47:50;;;;;;;6.65;3.78;;;;;;;;;;5104621;28;20023;-50
2024/04/04 09:50:18;;;;;;;6.70;3.70;;;;;;;;;;5104575;28;20023;-52
2024/04/04 09:52:45;;;;;;;3.70;3.40;;;;;;;;;;5104648;28;20020;-48
2024/04/04 09:55:13;;;;;;;3.35;3.05;;;;;;;;;;5104514;28;20020;-49
2024/04/04 09:57:40;;;;;;;5.63;3.50;;;;;;;;;;5104567;28;20019;-52
2024/04/04 10:00:17;;;;;;;6.53;3.22;;;;;;;;;;5104568;28;20016;-48
2024/04/04 10:02:46;;;;;;;6.53;4.32;;;;;;;;;;5104187;28;20040;-45
2024/04/04 10:05:17;;;;;;;9.82;4.60;;;;;;;;;;5104133;28;20074;-46
2024/04/04 10:07:44;;;;;;;7.25;3.85;;;;;;;;;;5104205;28;20084;-42
2024/04/04 10:10:14;;;;;;;6.50;3.70;;;;;;;;;;5104241;28;20073;-51
2024/04/04 10:12:43;;;;;;;6.53;3.63;;;;;;;;;;5104459;28;20030;-48
2024/04/04 10:15:10;;;;;;;4.50;3.85;;;;;;;;;;5104177;28;20050;-46
2024/04/04 10:17:47;;;;;;;4.45;3.60;;;;;;;;;;5095147;28;20035;-47
2024/04/04 10:20:13;;;;;;;4.40;3.70;;;;;;;;;;5088666;28;20061;-51
2024/04/04 10:22:40;;;;;;;4.05;3.65;;;;;;;;;;5104035;28;20023;-51
2024/04/04 10:25:06;;;;;;;4.97;3.40;;;;;;;;;;5103980;28;20212;-54
2024/04/04 10:27:33;;;;;;;4.60;3.58;;;;;;;;;;5104759;28;20024;-48
2024/04/04 10:30:00;;;;;;;3.72;3.40;;;;;;;;;;5103870;28;20085;-58
2024/04/04 10:32:29;;;;;;;5.45;3.85;;;;;;;;;;5094068;28;20029;-49
2024/04/04 10:35:03;;;;;;;5.68;3.47;;;;;;;;;;5083907;28;20043;-51
2024/04/04 10:37:30;;;;;;;4.82;3.80;;;;;;;;;;5084175;28;20036;-48
2024/04/04 10:39:57;;;;;;;5.78;3.65;;;;;;;;;;5098799;28;20024;-49
2024/04/04 10:42:24;;;;;;;6.47;4.03;;;;;;;;;;5104442;28;20068;-47
2024/04/04 10:44:52;;;;;;;5.07;3.65;;;;;;;;;;5103734;28;20023;-44
2024/04/04 10:47:18;;;;;;;5.47;3.63;;;;;;;;;;5104358;28;20028;-52
2024/04/04 10:49:45;;;;;;;7.20;4.13;;;;;;;;;;5104179;28;20035;-43
2024/04/04 10:52:12;;;;;;;5.15;4.00;;;;;;;;;;5094977;28;20024;-45
2024/04/04 10:54:39;;;;;;;3.85;3.45;;;;;;;;;;5101434;28;20079;-41
2024/04/04 10:57:05;;;;;;;5.28;3.40;;;;;;;;;;5084089;28;20054;-42
2024/04/04 10:59:32;;;;;;;5.15;3.63;;;;;;;;;;5083460;28;20023;-42
2024/04/04 11:02:02;;;;;;;8.95;3.70;;;;;;;;;;5083934;28;20035;-44
2024/04/04 11:04:31;;;;;;;14.32;4.45;;;;;;;;;;5083469;28;20035;-43
2024/04/04 11:06:57;;;;;;;7.82;4.50;;;;;;;;;;5083790;28;20040;-48
2024/04/04 11:09:25;;;;;;;10.73;5.43;;;;;;;;;;5083584;28;20020;-42
2024/04/04 11:11:56;;;;;;;6.85;4.45;;;;;;;;;;5083882;28;20045;-45
2024/04/04 11:14:23;;;;;;;8.55;4.65;;;;;;;;;;5083381;28;20321;-47
2024/04/04 11:16:56;;;;;;;10.95;5.28;;;;;;;;;;5083708;28;20028;-47
2024/04/04 11:19:24;;;;;;;10.07;6.10;;;;;;;;;;5083119;28;20029;-52
2024/04/04 11:21:50;;;;;;;17.92;7.07;;;;;;;;;;5087359;28;20028;-47
2024/04/04 11:24:18;;;;;;;16.73;6.35;;;;;;;;;;5098138;28;20247;-52
2024/04/04 11:26:44;;;;;;;12.98;6.15;;;;;;;;;;5100511;28;20088;-44
2024/04/04 11:29:11;;;;;;;10.80;5.95;;;;;;;;;;5101279;28;20016;-42
2024/04/04 11:31:38;;;;;;;10.18;5.05;;;;;;;;;;5103636;28;20055;-41
2024/04/04 11:34:05;;;;;;;13.23;5.95;;;;;;;;;;5103447;28;20083;-44
2024/04/04 11:36:32;;;;;;;8.68;5.00;;;;;;;;;;5103962;28;20135;-41
2024/04/04 11:38:59;;;;;;;9.50;4.68;;;;;;;;;;5103574;28;20027;-46
2024/04/04 11:41:26;;;;;;;6.78;4.07;;;;;;;;;;5102500;28;20024;-48
2024/04/04 11:43:53;;;;;;;10.63;4.20;;;;;;;;;;5095747;28;20028;-41
2024/04/04 11:46:19;;;;;;;5.63;3.90;;;;;;;;;;5089612;28;20035;-49
2024/04/04 11:48:46;;;;;;;8.10;3.85;;;;;;;;;;5083153;28;20021;-42
2024/04/04 11:51:13;;;;;;;8.77;4.18;;;;;;;;;;5083493;28;20028;-44
2024/04/04 11:53:39;;;;;;;8.57;3.65;;;;;;;;;;5086672;28;20027;-44
2024/04/04 11:56:06;;;;;;;7.97;3.42;;;;;;;;;;5086769;28;20048;-41
2024/04/04 11:58:34;;;;;;;7.03;3.50;;;;;;;;;;5086443;28;20017;-43
2024/04/04 12:01:01;;;;;;;5.15;3.40;;;;;;;;;;5086571;28;20070;-40
2024/04/04 12:03:28;;;;;;;7.05;3.08;;;;;;;;;;5086452;28;20036;-41
2024/04/04 12:05:55;;;;;;;6.93;3.10;;;;;;;;;;5086280;28;20040;-47
2024/04/04 12:08:22;;;;;;;7.45;3.15;;;;;;;;;;5086276;28;20047;-43
2024/04/04 12:10:48;;;;;;;5.40;3.35;;;;;;;;;;5086387;28;20020;-42
2024/04/04 12:13:15;;;;;;;6.35;3.20;;;;;;;;;;5090085;28;20017;-41
2024/04/04 12:15:48;;;;;;;4.82;3.40;;;;;;;;;;5094245;28;20370;-41
2024/04/04 12:21:00;;;;;;;4.10;3.00;;;;;;;;;;5086227;28;20055;-50
2024/04/04 12:23:27;;;;;;;3.65;2.65;;;;;;;;;;5086089;28;20051;-48
2024/04/04 12:25:53;;;;;;;4.00;3.13;;;;;;;;;;5085975;28;20035;-41
2024/04/04 12:28:20;;;;;;;3.45;3.08;;;;;;;;;;5086034;28;20028;-49
2024/04/04 12:30:47;;;;;;;3.60;3.17;;;;;;;;;;5085813;28;20092;-48
2024/04/04 12:33:13;;;;;;;6.68;3.08;;;;;;;;;;5086031;28;20201;-43
2024/04/04 12:35:40;;;;;;;4.85;3.17;;;;;;;;;;5086124;28;20032;-44
2024/04/04 12:38:07;;;;;;;4.88;2.80;;;;;;;;;;5093164;28;20216;-44
2024/04/04 12:40:33;;;;;;;3.97;2.90;;;;;;;;;;5090024;28;20032;-43
2024/04/04 12:43:00;;;;;;;4.68;2.78;;;;;;;;;;5092499;28;20030;-40
2024/04/04 12:45:26;;;;;;;4.18;2.88;;;;;;;;;;5090385;28;20016;-42
2024/04/04 12:47:53;;;;;;;3.83;3.05;;;;;;;;;;5085461;28;20092;-42
2024/04/04 12:50:23;;;;;;;3.90;2.60;;;;;;;;;;5085527;28;20020;-44
2024/04/04 12:52:50;;;;;;;4.70;2.80;;;;;;;;;;5090761;28;20023;-43
2024/04/04 12:55:17;;;;;;;4.65;2.50;;;;;;;;;;5091561;28;20331;-44
2024/04/04 12:57:44;;;;;;;4.72;2.60;;;;;;;;;;5085364;28;20316;-48
2024/04/04 13:00:11;;;;;;;3.58;2.47;;;;;;;;;;5085259;28;20030;-42
2024/04/04 13:02:38;;;;;;;5.63;2.60;;;;;;;;;;5102839;28;20316;-50
2024/04/04 13:05:05;;;;;;;4.30;2.55;;;;;;;;;;5105521;28;20050;-45
2024/04/04 13:07:32;;;;;;;3.35;2.30;;;;;;;;;;5105952;28;20073;-44
2024/04/04 13:09:58;;;;;;;5.55;5.07;;;;;;;;;;5105318;28;20012;-45
2024/04/04 13:12:25;;;;;;;4.93;3.97;;;;;;;;;;5106018;28;20296;-44
2024/04/04 13:14:52;;;;;;;4.20;3.63;;;;;;;;;;5105511;28;20038;-43
2024/04/04 13:17:18;;;;;;;6.40;3.63;;;;;;;;;;5099313;28;20024;-38
2024/04/04 13:19:45;;;;;;;6.30;3.45;;;;;;;;;;5084936;28;20021;-40
2024/04/04 13:22:12;;;;;;;5.00;3.50;;;;;;;;;;5085413;28;20030;-50
2024/04/04 13:24:39;;;;;;;4.32;3.00;;;;;;;;;;5084876;28;20027;-48
2024/04/04 13:27:06;;;;;;;5.13;3.13;;;;;;;;;;5094173;28;20211;-50
2024/04/04 13:29:33;;;;;;;6.53;3.03;;;;;;;;;;5105210;28;20118;-49
2024/04/04 13:31:59;;;;;;;4.90;3.30;;;;;;;;;;5105359;28;20030;-50
2024/04/04 13:34:26;;;;;;;5.60;3.05;;;;;;;;;;5105009;28;20289;-46
2024/04/04 13:36:53;;;;;;;5.40;2.80;;;;;;;;;;5105385;28;20250;-43
2024/04/04 13:39:19;;;;;;;5.78;3.05;;;;;;;;;;5104906;28;20079;-43
2024/04/04 13:41:46;;;;;;;6.25;3.17;;;;;;;;;;5105209;28;20035;-45
2024/04/04 13:44:13;;;;;;;7.13;3.20;;;;;;;;;;5104885;28;20016;-43
2024/04/04 13:46:40;;;;;;;4.97;3.58;;;;;;;;;;5105112;28;20091;-47
2024/04/04 13:49:07;;;;;;;6.55;3.22;;;;;;;;;;5104673;28;20044;-46
2024/04/04 13:51:34;;;;;;;3.88;2.80;;;;;;;;;;5104317;28;20031;-39
2024/04/04 13:54:01;;;;;;;4.28;3.00;;;;;;;;;;5090938;28;20030;-41
2024/04/04 13:56:28;;;;;;;5.82;2.78;;;;;;;;;;5086872;28;20084;-43
2024/04/04 13:58:54;;;;;;;4.43;3.15;;;;;;;;;;5097118;28;20024;-44
2024/04/04 14:01:21;;;;;;;4.38;3.38;;;;;;;;;;5104828;28;20048;-49
2024/04/04 14:03:47;;;;;;;4.85;3.33;;;;;;;;;;5104272;28;20048;-51
2024/04/04 14:06:14;;;;;;;5.90;2.78;;;;;;;;;;5104638;28;20024;-53
2024/04/04 14:08:41;;;;;;;5.35;3.08;;;;;;;;;;5086357;28;20059;-52
2024/04/04 14:11:07;;;;;;;4.20;2.70;;;;;;;;;;5094525;28;20027;-50
2024/04/04 14:13:34;;;;;;;5.38;2.95;;;;;;;;;;5094781;28;20031;-53
2024/04/04 14:16:02;;;;;;;4.63;2.53;;;;;;;;;;5092798;28;20093;-48
2024/04/04 14:18:29;;;;;;;4.53;3.03;;;;;;;;;;5083917;28;20325;-48
2024/04/04 14:20:55;;;;;;;3.38;2.70;;;;;;;;;;5098018;28;20031;-47
2024/04/04 14:23:22;;;;;;;4.00;3.30;;;;;;;;;;5098758;28;20020;-46
2024/04/04 14:25:48;;;;;;;7.10;3.83;;;;;;;;;;5104132;28;20048;-48
2024/04/04 14:28:15;;;;;;;5.25;3.65;;;;;;;;;;5104229;28;20024;-52
2024/04/04 14:30:41;;;;;;;8.68;4.03;;;;;;;;;;5104050;28;20058;-44
2024/04/04 14:33:08;;;;;;;5.45;4.20;;;;;;;;;;5101239;28;20020;-46
2024/04/04 14:35:35;;;;;;;5.68;4.30;;;;;;;;;;5092753;28;20035;-48
2024/04/04 14:38:01;;;;;;;9.65;6.88;;;;;;;;;;5083819;28;20039;-44
2024/04/04 14:40:28;;;;;;;11.32;7.60;;;;;;;;;;5089046;28;20023;-48
2024/04/04 14:42:54;;;;;;;11.32;8.07;;;;;;;;;;5092972;28;20024;-50
2024/04/04 14:45:21;;;;;;;10.00;8.60;;;;;;;;;;5099392;28;20963;-45